createdAt,value
2019-04-28T00:00:41.157Z,6.49
2019-04-28T00:01:41.053Z,6.51
2019-04-28T00:02:40.813Z,6.43
2019-04-28T00:03:41.841Z,6.36
2019-04-28T00:04:41.417Z,6.49
2019-04-28T00:05:41.515Z,6.49
2019-04-28T00:06:41.654Z,6.49
2019-04-28T00:07:41.095Z,6.44
2019-04-28T00:08:39.820Z,6.40
2019-04-28T00:09:41.498Z,6.46
2019-04-28T00:10:41.716Z,6.38
2019-04-28T00:11:41.584Z,6.43
2019-04-28T00:12:41.262Z,6.41
2019-04-28T00:13:41.579Z,6.37
2019-04-28T00:14:41.647Z,6.31
2019-04-28T00:15:41.537Z,6.37
2019-04-28T00:16:41.154Z,6.36
2019-04-28T00:17:39.688Z,6.36
2019-04-28T00:18:41.331Z,6.34
2019-04-28T00:19:40.875Z,6.36
2019-04-28T00:20:40.868Z,6.33
2019-04-28T00:21:41.361Z,6.36
2019-04-28T00:22:39.619Z,6.36
2019-04-28T00:23:39.594Z,6.34
2019-04-28T00:24:41.485Z,6.33
2019-04-28T00:25:41.071Z,6.22
2019-04-28T00:26:40.998Z,6.37
2019-04-28T00:27:41.385Z,6.38
2019-04-28T00:28:41.318Z,6.37
2019-04-28T00:29:43.525Z,6.33
2019-04-28T00:30:41.721Z,6.33
2019-04-28T00:31:41.178Z,6.28
2019-04-28T00:32:39.491Z,6.38
2019-04-28T00:33:41.023Z,6.27
2019-04-28T00:34:41.290Z,6.27
2019-04-28T00:35:39.467Z,6.22
2019-04-28T00:36:42.554Z,6.12
2019-04-28T00:37:39.467Z,6.22
2019-04-28T00:38:41.371Z,6.18
2019-04-28T00:39:40.956Z,6.11
2019-04-28T00:40:41.253Z,6.11
2019-04-28T00:41:39.448Z,6.17
2019-04-28T00:42:41.233Z,6.15
2019-04-28T00:43:39.386Z,6.19
2019-04-28T00:44:39.358Z,6.17
2019-04-28T00:45:41.232Z,6.09
2019-04-28T00:46:41.061Z,6.15
2019-04-28T00:47:41.266Z,6.15
2019-04-28T00:48:40.929Z,6.18
2019-04-28T00:49:39.320Z,6.18
2019-04-28T00:50:39.295Z,6.17
2019-04-28T00:51:41.343Z,6.14
2019-04-28T00:52:39.306Z,6.14
2019-04-28T00:53:40.875Z,6.15
2019-04-28T00:54:39.244Z,6.06
2019-04-28T00:55:39.243Z,6.08
2019-04-28T00:56:39.209Z,6.08
2019-04-28T00:57:40.896Z,6.09
2019-04-28T00:58:39.249Z,6.09
2019-04-28T00:59:52.202Z,6.06
2019-04-28T01:00:41.448Z,6.09
2019-04-28T01:01:40.719Z,6.08
2019-04-28T01:02:41.106Z,6.03
2019-04-28T01:03:39.145Z,6.08
2019-04-28T01:04:39.144Z,6.09
2019-04-28T01:05:41.047Z,6.17
2019-04-28T01:06:39.119Z,6.04
2019-04-28T01:07:41.186Z,6.04
2019-04-28T01:08:39.087Z,6.14
2019-04-28T01:09:39.128Z,6.11
2019-04-28T01:10:40.893Z,6.03
2019-04-28T01:11:39.049Z,6.11
2019-04-28T01:12:40.592Z,6.08
2019-04-28T01:13:39.029Z,6.06
2019-04-28T01:14:40.968Z,6.06
2019-04-28T01:15:39.630Z,6.00
2019-04-28T01:16:40.056Z,5.97
2019-04-28T01:17:39.767Z,5.91
2019-04-28T01:18:40.460Z,5.90
2019-04-28T01:19:39.820Z,5.94
2019-04-28T01:20:39.661Z,6.00
2019-04-28T01:21:41.567Z,5.93
2019-04-28T01:22:40.186Z,5.78
2019-04-28T01:23:40.260Z,5.83
2019-04-28T01:24:39.747Z,5.82
2019-04-28T01:25:40.127Z,5.74
2019-04-28T01:26:39.225Z,5.76
2019-04-28T01:27:40.295Z,5.81
2019-04-28T01:28:39.783Z,5.75
2019-04-28T01:29:40.281Z,5.63
2019-04-28T01:30:40.110Z,5.60
2019-04-28T01:31:39.634Z,5.61
2019-04-28T01:32:39.956Z,5.65
2019-04-28T01:33:40.519Z,5.58
2019-04-28T01:34:39.987Z,5.63
2019-04-28T01:35:39.705Z,5.58
2019-04-28T01:36:39.984Z,5.58
2019-04-28T01:37:40.588Z,5.48
2019-04-28T01:38:40.189Z,5.58
2019-04-28T01:39:40.981Z,5.57
2019-04-28T01:40:38.720Z,5.54
2019-04-28T01:41:39.781Z,5.53
2019-04-28T01:42:38.784Z,5.63
2019-04-28T01:43:38.695Z,5.56
2019-04-28T01:44:39.549Z,5.51
2019-04-28T01:45:39.891Z,5.57
2019-04-28T01:46:39.893Z,5.56
2019-04-28T01:47:40.429Z,5.54
2019-04-28T01:48:39.801Z,5.60
2019-04-28T01:49:40.429Z,5.49
2019-04-28T01:50:40.000Z,5.63
2019-04-28T01:51:38.601Z,5.53
2019-04-28T01:52:39.930Z,5.61
2019-04-28T01:53:39.566Z,5.63
2019-04-28T01:54:40.325Z,5.71
2019-04-28T01:55:39.553Z,5.63
2019-04-28T01:56:40.283Z,5.63
2019-04-28T01:57:39.999Z,5.63
2019-04-28T01:58:40.235Z,5.63
2019-04-28T01:59:40.352Z,5.65
2019-04-28T02:00:40.422Z,5.68
2019-04-28T02:01:39.984Z,5.72
2019-04-28T02:02:38.471Z,5.68
2019-04-28T02:03:40.307Z,5.68
2019-04-28T02:04:40.166Z,5.74
2019-04-28T02:05:40.408Z,5.76
2019-04-28T02:06:39.892Z,5.71
2019-04-28T02:07:40.595Z,5.71
2019-04-28T02:08:39.899Z,5.82
2019-04-28T02:09:39.589Z,5.76
2019-04-28T02:10:40.180Z,5.76
2019-04-28T02:11:39.163Z,5.74
2019-04-28T02:12:39.907Z,5.83
2019-04-28T02:13:39.792Z,5.78
2019-04-28T02:14:40.258Z,5.89
2019-04-28T02:15:40.038Z,5.97
2019-04-28T02:16:38.369Z,5.89
2019-04-28T02:17:40.009Z,5.78
2019-04-28T02:18:39.861Z,5.85
2019-04-28T02:19:38.276Z,5.79
2019-04-28T02:20:39.750Z,5.74
2019-04-28T02:21:39.538Z,5.85
2019-04-28T02:22:40.013Z,5.96
2019-04-28T02:23:39.711Z,5.78
2019-04-28T02:24:38.301Z,5.93
2019-04-28T02:25:39.884Z,5.86
2019-04-28T02:26:40.184Z,5.82
2019-04-28T02:27:39.936Z,5.86
2019-04-28T02:28:38.170Z,5.85
2019-04-28T02:29:41.404Z,5.90
2019-04-28T02:30:47.887Z,5.90
2019-04-28T02:31:41.910Z,5.91
2019-04-28T02:32:40.728Z,5.89
2019-04-28T02:33:40.683Z,5.97
2019-04-28T02:34:40.716Z,5.97
2019-04-28T02:35:38.181Z,5.83
2019-04-28T02:36:40.561Z,5.90
2019-04-28T02:37:40.371Z,5.93
2019-04-28T02:38:38.115Z,5.90
2019-04-28T02:39:40.633Z,5.94
2019-04-28T02:40:40.417Z,5.89
2019-04-28T02:41:40.945Z,5.91
2019-04-28T02:42:40.707Z,5.89
2019-04-28T02:43:40.692Z,5.93
2019-04-28T02:44:40.268Z,5.91
2019-04-28T02:45:41.005Z,5.99
2019-04-28T02:46:40.565Z,5.96
2019-04-28T02:47:37.971Z,5.90
2019-04-28T02:48:40.326Z,5.93
2019-04-28T02:49:40.364Z,5.91
2019-04-28T02:50:37.942Z,5.96
2019-04-28T02:51:40.506Z,5.91
2019-04-28T02:52:37.898Z,5.90
2019-04-28T02:53:40.663Z,5.85
2019-04-28T02:54:40.287Z,5.96
2019-04-28T02:55:37.900Z,5.97
2019-04-28T02:56:43.399Z,5.94
2019-04-28T02:57:40.594Z,5.91
2019-04-28T02:58:37.829Z,5.91
2019-04-28T02:59:41.016Z,5.93
2019-04-28T03:00:37.845Z,5.93
2019-04-28T03:01:40.726Z,5.91
2019-04-28T03:02:37.814Z,5.91
2019-04-28T03:03:37.778Z,5.94
2019-04-28T03:04:40.596Z,5.89
2019-04-28T03:05:37.746Z,5.86
2019-04-28T03:06:40.528Z,5.97
2019-04-28T03:07:37.737Z,5.99
2019-04-28T03:08:40.248Z,6.00
2019-04-28T03:09:40.187Z,5.90
2019-04-28T03:10:37.734Z,5.94
2019-04-28T03:11:37.691Z,5.93
2019-04-28T03:12:37.728Z,5.91
2019-04-28T03:13:37.667Z,5.96
2019-04-28T03:14:43.334Z,5.94
2019-04-28T03:15:37.670Z,5.85
2019-04-28T03:16:37.623Z,5.96
2019-04-28T03:17:40.393Z,5.93
2019-04-28T03:18:37.647Z,5.97
2019-04-28T03:19:37.598Z,6.00
2019-04-28T03:20:37.594Z,5.97
2019-04-28T03:21:37.586Z,5.91
2019-04-28T03:22:37.574Z,5.94
2019-04-28T03:23:40.400Z,5.96
2019-04-28T03:24:37.547Z,6.03
2019-04-28T03:25:40.540Z,6.01
2019-04-28T03:26:37.548Z,5.96
2019-04-28T03:27:37.535Z,6.06
2019-04-28T03:28:37.501Z,6.00
2019-04-28T03:29:37.516Z,5.94
2019-04-28T03:30:37.471Z,5.99
2019-04-28T03:32:07.186Z,6.03
2019-04-28T03:32:51.746Z,5.97
2019-04-28T03:33:48.037Z,6.00
2019-04-28T03:34:42.869Z,5.96
2019-04-28T03:35:38.415Z,5.91
2019-04-28T03:36:37.416Z,5.97
2019-04-28T03:37:37.396Z,5.94
2019-04-28T03:38:37.389Z,5.96
2019-04-28T03:39:37.381Z,5.97
2019-04-28T03:40:37.383Z,5.93
2019-04-28T03:41:37.357Z,5.99
2019-04-28T03:42:37.339Z,6.00
2019-04-28T03:43:37.371Z,6.06
2019-04-28T03:44:37.317Z,6.03
2019-04-28T03:45:37.344Z,6.08
2019-04-28T03:46:37.282Z,6.04
2019-04-28T03:47:37.278Z,5.97
2019-04-28T03:48:37.312Z,6.11
2019-04-28T03:49:37.270Z,6.06
2019-04-28T03:50:38.003Z,5.91
2019-04-28T03:51:37.238Z,6.01
2019-04-28T03:52:37.258Z,6.08
2019-04-28T03:53:37.208Z,6.04
2019-04-28T03:54:37.198Z,6.11
2019-04-28T03:55:37.201Z,6.11
2019-04-28T03:56:37.947Z,6.08
2019-04-28T03:57:37.159Z,6.04
2019-04-28T03:58:37.167Z,6.14
2019-04-28T03:59:37.142Z,6.12
2019-04-28T04:00:37.132Z,6.15
2019-04-28T04:01:53.101Z,6.12
2019-04-28T04:02:40.905Z,6.06
2019-04-28T04:03:37.089Z,6.06
2019-04-28T04:04:37.086Z,6.12
2019-04-28T04:05:37.070Z,6.12
2019-04-28T04:06:37.067Z,6.08
2019-04-28T04:07:37.082Z,6.04
2019-04-28T04:08:37.087Z,6.03
2019-04-28T04:09:37.036Z,6.03
2019-04-28T04:10:37.018Z,6.08
2019-04-28T04:11:37.015Z,6.06
2019-04-28T04:12:37.000Z,6.06
2019-04-28T04:13:37.025Z,5.93
2019-04-28T04:14:37.021Z,6.03
2019-04-28T04:15:36.956Z,6.00
2019-04-28T04:16:36.976Z,6.09
2019-04-28T04:17:36.953Z,6.01
2019-04-28T04:18:36.959Z,6.06
2019-04-28T04:19:36.969Z,5.99
2019-04-28T04:20:36.913Z,6.01
2019-04-28T04:21:36.899Z,6.11
2019-04-28T04:22:36.891Z,5.97
2019-04-28T04:23:36.896Z,5.97
2019-04-28T04:24:36.859Z,6.11
2019-04-28T04:25:36.911Z,6.06
2019-04-28T04:26:36.838Z,6.09
2019-04-28T04:27:36.826Z,6.01
2019-04-28T04:28:36.817Z,6.08
2019-04-28T04:29:36.841Z,6.00
2019-04-28T04:30:36.813Z,6.03
2019-04-28T04:31:36.808Z,6.11
2019-04-28T04:32:36.784Z,6.12
2019-04-28T04:33:36.763Z,6.12
2019-04-28T04:34:36.795Z,6.11
2019-04-28T04:35:36.725Z,6.12
2019-04-28T04:36:36.736Z,6.12
2019-04-28T04:37:36.732Z,6.09
2019-04-28T04:38:40.031Z,6.15
2019-04-28T04:39:40.526Z,6.18
2019-04-28T04:40:36.673Z,6.17
2019-04-28T04:41:36.716Z,6.18
2019-04-28T04:42:37.456Z,6.19
2019-04-28T04:43:36.666Z,6.19
2019-04-28T04:44:40.611Z,6.19
2019-04-28T04:45:36.659Z,6.27
2019-04-28T04:46:36.600Z,6.14
2019-04-28T04:47:36.633Z,6.25
2019-04-28T04:48:36.594Z,6.22
2019-04-28T04:49:36.568Z,6.17
2019-04-28T04:50:36.568Z,6.27
2019-04-28T04:51:36.551Z,6.15
2019-04-28T04:52:36.583Z,6.11
2019-04-28T04:53:36.561Z,6.17
2019-04-28T04:54:36.939Z,6.15
2019-04-28T04:55:36.507Z,6.09
2019-04-28T04:56:36.516Z,6.21
2019-04-28T04:57:36.552Z,6.15
2019-04-28T04:58:36.498Z,6.21
2019-04-28T04:59:36.452Z,6.09
2019-04-28T05:00:36.453Z,6.18
2019-04-28T05:01:36.474Z,6.17
2019-04-28T05:02:36.448Z,6.15
2019-04-28T05:03:36.459Z,6.18
2019-04-28T05:04:36.414Z,6.18
2019-04-28T05:05:36.392Z,6.15
2019-04-28T05:06:36.384Z,6.14
2019-04-28T05:07:36.412Z,6.15
2019-04-28T05:08:36.396Z,6.15
2019-04-28T05:09:36.386Z,6.11
2019-04-28T05:10:36.353Z,6.18
2019-04-28T05:11:36.323Z,6.18
2019-04-28T05:12:36.351Z,6.19
2019-04-28T05:13:36.311Z,6.15
2019-04-28T05:14:36.291Z,6.14
2019-04-28T05:15:36.342Z,6.17
2019-04-28T05:16:36.266Z,6.14
2019-04-28T05:17:36.254Z,6.11
2019-04-28T05:18:36.241Z,6.11
2019-04-28T05:19:36.293Z,6.22
2019-04-28T05:20:36.272Z,6.17
2019-04-28T05:21:36.216Z,6.18
2019-04-28T05:22:36.213Z,6.11
2019-04-28T05:23:36.178Z,6.14
2019-04-28T05:24:36.183Z,6.22
2019-04-28T05:25:36.279Z,6.12
2019-04-28T05:26:36.188Z,6.27
2019-04-28T05:27:36.200Z,6.25
2019-04-28T05:28:36.850Z,6.15
2019-04-28T05:29:37.140Z,6.22
2019-04-28T05:30:39.657Z,6.15
2019-04-28T05:31:37.169Z,6.19
2019-04-28T05:32:44.752Z,6.21
2019-04-28T05:33:37.086Z,6.28
2019-04-28T05:34:41.392Z,6.27
2019-04-28T05:35:37.089Z,6.28
2019-04-28T05:36:40.959Z,6.28
2019-04-28T05:37:36.068Z,6.27
2019-04-28T05:38:36.018Z,6.34
2019-04-28T05:39:37.884Z,6.34
2019-04-28T05:40:36.019Z,6.37
2019-04-28T05:41:35.989Z,6.30
2019-04-28T05:42:35.976Z,6.37
2019-04-28T05:43:36.043Z,6.28
2019-04-28T05:44:37.614Z,6.36
2019-04-28T05:45:35.955Z,6.31
2019-04-28T05:46:35.982Z,6.33
2019-04-28T05:47:35.925Z,6.34
2019-04-28T05:48:35.954Z,6.34
2019-04-28T05:49:35.894Z,6.34
2019-04-28T05:50:35.919Z,6.36
2019-04-28T05:51:35.874Z,6.40
2019-04-28T05:52:35.860Z,6.38
2019-04-28T05:53:35.854Z,6.37
2019-04-28T05:54:35.865Z,6.37
2019-04-28T05:55:35.836Z,6.36
2019-04-28T05:56:35.820Z,6.36
2019-04-28T05:57:37.563Z,6.34
2019-04-28T05:58:35.811Z,6.38
2019-04-28T05:59:35.834Z,6.38
2019-04-28T06:00:35.770Z,6.37
2019-04-28T06:01:35.758Z,6.44
2019-04-28T06:02:35.760Z,6.40
2019-04-28T06:03:35.751Z,6.48
2019-04-28T06:04:35.752Z,6.44
2019-04-28T06:05:35.775Z,6.52
2019-04-28T06:06:35.715Z,6.48
2019-04-28T06:07:35.679Z,6.48
2019-04-28T06:08:35.685Z,6.52
2019-04-28T06:09:35.676Z,6.52
2019-04-28T06:10:35.698Z,6.55
2019-04-28T06:11:35.660Z,6.54
2019-04-28T06:12:35.635Z,6.51
2019-04-28T06:13:35.617Z,6.52
2019-04-28T06:14:35.612Z,6.56
2019-04-28T06:15:35.603Z,6.55
2019-04-28T06:16:35.607Z,6.55
2019-04-28T06:17:35.577Z,6.44
2019-04-28T06:18:35.564Z,6.59
2019-04-28T06:19:35.619Z,6.54
2019-04-28T06:20:35.551Z,6.61
2019-04-28T06:21:35.553Z,6.55
2019-04-28T06:22:35.550Z,6.59
2019-04-28T06:23:35.521Z,6.49
2019-04-28T06:24:35.488Z,6.49
2019-04-28T06:25:35.489Z,6.52
2019-04-28T06:26:35.506Z,6.44
2019-04-28T06:27:35.495Z,6.44
2019-04-28T06:28:35.443Z,6.51
2019-04-28T06:29:35.445Z,6.49
2019-04-28T06:30:35.427Z,6.43
2019-04-28T06:31:35.453Z,6.51
2019-04-28T06:32:35.411Z,6.51
2019-04-28T06:33:35.434Z,6.56
2019-04-28T06:34:35.386Z,6.55
2019-04-28T06:35:35.369Z,6.69
2019-04-28T06:36:35.403Z,6.66
2019-04-28T06:37:35.338Z,6.69
2019-04-28T06:38:35.433Z,6.66
2019-04-28T06:39:35.326Z,6.69
2019-04-28T06:40:35.324Z,6.84
2019-04-28T06:41:35.309Z,6.69
2019-04-28T06:42:35.313Z,6.79
2019-04-28T06:43:35.290Z,6.73
2019-04-28T06:44:35.300Z,6.74
2019-04-28T06:45:35.320Z,6.73
2019-04-28T06:46:35.291Z,6.73
2019-04-28T06:47:35.232Z,6.73
2019-04-28T06:48:35.284Z,6.84
2019-04-28T06:49:35.246Z,6.80
2019-04-28T06:50:35.195Z,6.79
2019-04-28T06:51:35.196Z,6.87
2019-04-28T06:52:35.246Z,6.81
2019-04-28T06:53:35.174Z,6.73
2019-04-28T06:54:35.155Z,6.70
2019-04-28T06:55:35.164Z,6.80
2019-04-28T06:56:35.142Z,6.70
2019-04-28T06:57:35.142Z,6.73
2019-04-28T06:58:35.104Z,6.74
2019-04-28T06:59:35.111Z,6.74
2019-04-28T07:00:35.104Z,6.73
2019-04-28T07:01:35.102Z,6.74
2019-04-28T07:02:35.069Z,6.80
2019-04-28T07:03:35.050Z,6.88
2019-04-28T07:04:35.043Z,6.79
2019-04-28T07:05:35.052Z,6.85
2019-04-28T07:06:35.026Z,6.77
2019-04-28T07:07:35.039Z,6.80
2019-04-28T07:08:34.996Z,6.84
2019-04-28T07:09:34.986Z,6.79
2019-04-28T07:10:34.975Z,6.74
2019-04-28T07:11:34.977Z,6.80
2019-04-28T07:12:35.011Z,6.69
2019-04-28T07:13:34.962Z,6.79
2019-04-28T07:14:34.937Z,6.79
2019-04-28T07:15:34.964Z,6.73
2019-04-28T07:16:34.929Z,6.77
2019-04-28T07:17:34.909Z,6.70
2019-04-28T07:18:34.934Z,6.69
2019-04-28T07:19:34.871Z,6.76
2019-04-28T07:20:34.861Z,6.71
2019-04-28T07:21:34.859Z,6.67
2019-04-28T07:22:34.855Z,6.71
2019-04-28T07:23:34.818Z,6.73
2019-04-28T07:24:34.825Z,6.70
2019-04-28T07:25:34.828Z,6.79
2019-04-28T07:26:34.795Z,6.76
2019-04-28T07:27:34.809Z,6.81
2019-04-28T07:28:34.780Z,6.85
2019-04-28T07:29:34.831Z,6.81
2019-04-28T07:30:34.785Z,6.80
2019-04-28T07:31:34.743Z,6.81
2019-04-28T07:32:34.727Z,6.77
2019-04-28T07:33:36.177Z,6.67
2019-04-28T07:34:34.722Z,6.76
2019-04-28T07:35:34.725Z,6.81
2019-04-28T07:36:34.707Z,6.87
2019-04-28T07:37:34.670Z,6.89
2019-04-28T07:38:34.693Z,6.85
2019-04-28T07:39:34.646Z,6.97
2019-04-28T07:40:34.676Z,6.87
2019-04-28T07:41:34.625Z,6.91
2019-04-28T07:42:34.679Z,6.92
2019-04-28T07:43:34.603Z,6.89
2019-04-28T07:44:34.613Z,6.94
2019-04-28T07:45:34.582Z,7.02
2019-04-28T07:46:34.592Z,7.02
2019-04-28T07:47:34.627Z,6.97
2019-04-28T07:48:34.545Z,6.97
2019-04-28T07:49:34.544Z,7.07
2019-04-28T07:50:34.535Z,7.03
2019-04-28T07:51:34.575Z,6.88
2019-04-28T07:52:34.489Z,6.80
2019-04-28T07:53:34.501Z,6.95
2019-04-28T07:54:34.503Z,6.88
2019-04-28T07:55:34.477Z,6.95
2019-04-28T07:56:34.463Z,7.05
2019-04-28T07:57:34.512Z,7.03
2019-04-28T07:58:34.427Z,6.94
2019-04-28T07:59:34.442Z,7.07
2019-04-28T08:00:34.401Z,6.95
2019-04-28T08:01:34.396Z,7.13
2019-04-28T08:02:34.396Z,7.02
2019-04-28T08:03:34.381Z,6.98
2019-04-28T08:04:34.453Z,7.03
2019-04-28T08:05:34.344Z,6.95
2019-04-28T08:06:34.356Z,6.98
2019-04-28T08:07:34.333Z,6.94
2019-04-28T08:08:34.331Z,6.99
2019-04-28T08:09:34.311Z,6.89
2019-04-28T08:10:34.293Z,6.91
2019-04-28T08:11:34.321Z,6.81
2019-04-28T08:12:34.287Z,6.84
2019-04-28T08:13:34.301Z,6.88
2019-04-28T08:14:34.243Z,6.89
2019-04-28T08:15:34.327Z,6.97
2019-04-28T08:16:34.233Z,6.97
2019-04-28T08:17:34.235Z,6.95
2019-04-28T08:18:34.200Z,6.89
2019-04-28T08:19:34.208Z,6.95
2019-04-28T08:20:34.207Z,6.88
2019-04-28T08:21:34.283Z,6.95
2019-04-28T08:22:34.214Z,6.91
2019-04-28T08:23:46.327Z,6.94
2019-04-28T08:24:35.163Z,6.97
2019-04-28T08:25:34.123Z,6.98
2019-04-28T08:26:36.281Z,6.98
2019-04-28T08:27:39.091Z,7.15
2019-04-28T08:28:34.094Z,7.07
2019-04-28T08:29:34.103Z,7.10
2019-04-28T08:30:34.070Z,7.12
2019-04-28T08:31:34.053Z,7.10
2019-04-28T08:32:34.050Z,7.07
2019-04-28T08:33:34.030Z,7.07
2019-04-28T08:34:34.015Z,7.06
2019-04-28T08:35:34.028Z,6.98
2019-04-28T08:36:34.015Z,6.97
2019-04-28T08:37:33.978Z,6.91
2019-04-28T08:38:34.027Z,6.94
2019-04-28T08:39:33.972Z,6.91
2019-04-28T08:40:33.970Z,6.92
2019-04-28T08:41:33.966Z,6.98
2019-04-28T08:42:33.927Z,6.98
2019-04-28T08:43:33.917Z,6.97
2019-04-28T08:44:33.923Z,7.05
2019-04-28T08:45:33.890Z,6.94
2019-04-28T08:46:33.963Z,6.97
2019-04-28T08:47:33.913Z,6.98
2019-04-28T08:48:33.862Z,7.03
2019-04-28T08:49:33.880Z,7.06
2019-04-28T08:50:33.869Z,7.05
2019-04-28T08:51:33.825Z,7.07
2019-04-28T08:52:33.827Z,7.05
2019-04-28T08:53:33.846Z,7.05
2019-04-28T08:54:33.786Z,7.06
2019-04-28T08:55:33.779Z,6.97
2019-04-28T08:56:33.769Z,6.98
2019-04-28T08:57:33.773Z,6.98
2019-04-28T08:58:33.772Z,7.15
2019-04-28T08:59:33.731Z,6.94
2019-04-28T09:00:33.755Z,7.12
2019-04-28T09:01:33.712Z,7.06
2019-04-28T09:02:33.762Z,7.12
2019-04-28T09:03:33.701Z,7.21
2019-04-28T09:04:33.670Z,7.15
2019-04-28T09:05:33.683Z,7.25
2019-04-28T09:06:33.658Z,7.20
2019-04-28T09:07:33.659Z,7.28
2019-04-28T09:08:33.729Z,7.40
2019-04-28T09:09:33.771Z,7.43
2019-04-28T09:10:33.621Z,7.40
2019-04-28T09:11:33.640Z,7.40
2019-04-28T09:12:33.679Z,7.42
2019-04-28T09:13:33.680Z,7.45
2019-04-28T09:14:33.738Z,7.42
2019-04-28T09:15:33.739Z,7.43
2019-04-28T09:16:33.657Z,7.48
2019-04-28T09:17:33.538Z,7.37
2019-04-28T09:18:33.532Z,7.49
2019-04-28T09:19:33.787Z,7.48
2019-04-28T09:20:33.557Z,7.42
2019-04-28T09:21:33.538Z,7.32
2019-04-28T09:22:33.499Z,7.30
2019-04-28T09:23:33.544Z,7.37
2019-04-28T09:24:33.531Z,7.30
2019-04-28T09:25:33.544Z,7.25
2019-04-28T09:26:33.485Z,7.13
2019-04-28T09:27:44.286Z,7.12
2019-04-28T09:28:33.485Z,7.13
2019-04-28T09:29:33.412Z,7.12
2019-04-28T09:30:34.077Z,7.13
2019-04-28T09:31:33.553Z,7.23
2019-04-28T09:32:33.437Z,7.15
2019-04-28T09:33:33.594Z,7.17
2019-04-28T09:34:33.434Z,7.15
2019-04-28T09:35:33.343Z,7.15
2019-04-28T09:36:33.394Z,7.15
2019-04-28T09:37:34.367Z,7.24
2019-04-28T09:38:33.343Z,7.12
2019-04-28T09:39:33.320Z,7.16
2019-04-28T09:40:33.305Z,7.25
2019-04-28T09:41:33.421Z,7.15
2019-04-28T09:42:44.121Z,7.23
2019-04-28T09:43:33.951Z,7.23
2019-04-28T09:44:33.282Z,7.35
2019-04-28T09:45:33.280Z,7.42
2019-04-28T09:46:33.270Z,7.43
2019-04-28T09:47:33.266Z,7.45
2019-04-28T09:48:33.263Z,7.53
2019-04-28T09:49:33.236Z,7.57
2019-04-28T09:50:33.197Z,7.55
2019-04-28T09:51:33.249Z,7.55
2019-04-28T09:52:33.252Z,7.55
2019-04-28T09:53:33.297Z,7.50
2019-04-28T09:54:33.250Z,7.50
2019-04-28T09:55:33.136Z,7.52
2019-04-28T09:56:33.177Z,7.40
2019-04-28T09:57:33.114Z,7.40
2019-04-28T09:58:33.077Z,7.40
2019-04-28T09:59:33.086Z,7.23
2019-04-28T10:00:33.092Z,7.13
2019-04-28T10:01:33.175Z,7.21
2019-04-28T10:02:33.142Z,7.32
2019-04-28T10:03:33.119Z,7.25
2019-04-28T10:04:41.351Z,7.32
2019-04-28T10:05:33.990Z,7.30
2019-04-28T10:06:33.168Z,7.31
2019-04-28T10:07:33.051Z,7.37
2019-04-28T10:08:33.022Z,7.35
2019-04-28T10:09:33.062Z,7.21
2019-04-28T10:10:32.944Z,7.25
2019-04-28T10:11:32.986Z,7.24
2019-04-28T10:12:32.908Z,7.35
2019-04-28T10:13:32.940Z,7.45
2019-04-28T10:14:33.027Z,7.55
2019-04-28T10:15:32.998Z,7.64
2019-04-28T10:16:33.449Z,7.67
2019-04-28T10:17:32.937Z,7.80
2019-04-28T10:18:32.893Z,7.82
2019-04-28T10:19:32.847Z,7.90
2019-04-28T10:20:32.941Z,7.97
2019-04-28T10:21:33.027Z,8.04
2019-04-28T10:22:32.830Z,8.11
2019-04-28T10:23:32.892Z,8.10
2019-04-28T10:24:32.775Z,8.15
2019-04-28T10:25:32.900Z,8.11
2019-04-28T10:26:32.870Z,8.15
2019-04-28T10:27:32.856Z,8.08
2019-04-28T10:28:32.777Z,8.01
2019-04-28T10:29:33.767Z,8.10
2019-04-28T10:30:34.537Z,8.01
2019-04-28T10:31:32.817Z,7.98
2019-04-28T10:32:32.687Z,7.98
2019-04-28T10:33:32.785Z,8.00
2019-04-28T10:34:32.710Z,7.97
2019-04-28T10:35:32.637Z,7.97
2019-04-28T10:36:32.716Z,7.90
2019-04-28T10:37:32.639Z,7.82
2019-04-28T10:38:32.648Z,7.72
2019-04-28T10:39:32.599Z,7.63
2019-04-28T10:40:32.628Z,7.53
2019-04-28T10:41:32.623Z,7.64
2019-04-28T10:42:32.660Z,7.75
2019-04-28T10:43:32.568Z,7.75
2019-04-28T10:44:32.539Z,8.01
2019-04-28T10:45:32.535Z,8.05
2019-04-28T10:46:32.562Z,8.08
2019-04-28T10:47:32.507Z,8.12
2019-04-28T10:48:32.524Z,8.25
2019-04-28T10:49:32.497Z,8.29
2019-04-28T10:50:32.483Z,8.16
2019-04-28T10:51:32.492Z,8.15
2019-04-28T10:52:32.447Z,8.18
2019-04-28T10:53:32.453Z,8.25
2019-04-28T10:54:33.051Z,8.34
2019-04-28T10:55:32.951Z,8.30
2019-04-28T10:56:32.428Z,8.37
2019-04-28T10:57:32.387Z,8.34
2019-04-28T10:58:32.474Z,8.34
2019-04-28T10:59:32.370Z,8.26
2019-04-28T11:00:33.951Z,8.28
2019-04-28T11:01:32.358Z,8.37
2019-04-28T11:02:32.352Z,8.40
2019-04-28T11:03:32.360Z,8.47
2019-04-28T11:04:32.314Z,8.50
2019-04-28T11:05:32.293Z,8.48
2019-04-28T11:06:32.285Z,8.43
2019-04-28T11:07:32.271Z,8.58
2019-04-28T11:08:32.466Z,8.43
2019-04-28T11:09:32.262Z,8.53
2019-04-28T11:10:32.247Z,8.71
2019-04-28T11:11:33.006Z,8.71
2019-04-28T11:12:32.217Z,8.76
2019-04-28T11:13:32.266Z,8.94
2019-04-28T11:14:32.244Z,9.01
2019-04-28T11:15:32.219Z,9.01
2019-04-28T11:16:32.188Z,9.26
2019-04-28T11:17:32.171Z,9.21
2019-04-28T11:18:32.196Z,9.48
2019-04-28T11:19:32.179Z,9.64
2019-04-28T11:20:32.173Z,9.87
2019-04-28T11:21:32.119Z,10.02
2019-04-28T11:22:32.111Z,10.17
2019-04-28T11:23:32.157Z,10.34
2019-04-28T11:24:32.973Z,10.40
2019-04-28T11:25:32.109Z,10.42
2019-04-28T11:26:32.057Z,10.55
2019-04-28T11:27:32.060Z,10.47
2019-04-28T11:28:32.113Z,10.33
2019-04-28T11:29:32.047Z,10.23
2019-04-28T11:30:32.052Z,10.15
2019-04-28T11:31:32.118Z,10.07
2019-04-28T11:32:32.072Z,9.91
2019-04-28T11:33:31.981Z,9.84
2019-04-28T11:34:31.966Z,9.72
2019-04-28T11:35:31.951Z,9.58
2019-04-28T11:36:32.095Z,9.51
2019-04-28T11:37:31.959Z,9.58
2019-04-28T11:38:32.015Z,9.71
2019-04-28T11:39:31.950Z,9.57
2019-04-28T11:40:31.951Z,9.61
2019-04-28T11:41:32.610Z,9.66
2019-04-28T11:42:31.927Z,9.60
2019-04-28T11:43:31.907Z,9.71
2019-04-28T11:44:31.891Z,9.69
2019-04-28T11:45:31.973Z,9.61
2019-04-28T11:46:31.892Z,9.51
2019-04-28T11:47:31.834Z,9.36
2019-04-28T11:48:31.835Z,9.24
2019-04-28T11:49:31.824Z,9.11
2019-04-28T11:50:31.834Z,9.02
2019-04-28T11:51:31.802Z,9.01
2019-04-28T11:52:31.796Z,9.02
2019-04-28T11:53:31.831Z,9.13
2019-04-28T11:54:31.802Z,9.32
2019-04-28T11:55:31.728Z,9.31
2019-04-28T11:56:41.318Z,9.35
2019-04-28T11:57:47.655Z,9.20
2019-04-28T11:58:32.625Z,9.15
2019-04-28T11:59:31.752Z,9.20
2019-04-28T12:00:31.711Z,9.28
2019-04-28T12:01:31.732Z,9.36
2019-04-28T12:02:31.659Z,9.36
2019-04-28T12:03:31.666Z,9.33
2019-04-28T12:04:31.695Z,9.57
2019-04-28T12:05:34.593Z,9.65
2019-04-28T12:06:31.715Z,9.81
2019-04-28T12:07:31.588Z,10.02
2019-04-28T12:08:31.590Z,10.17
2019-04-28T12:09:31.588Z,10.33
2019-04-28T12:10:31.565Z,10.42
2019-04-28T12:11:31.619Z,10.32
2019-04-28T12:12:31.600Z,10.41
2019-04-28T12:13:31.517Z,10.59
2019-04-28T12:14:31.523Z,10.68
2019-04-28T12:15:31.586Z,10.73
2019-04-28T12:16:31.523Z,10.88
2019-04-28T12:17:34.964Z,10.99
2019-04-28T12:18:31.476Z,11.15
2019-04-28T12:19:31.637Z,11.29
2019-04-28T12:20:31.483Z,11.36
2019-04-28T12:21:31.441Z,11.09
2019-04-28T12:22:31.488Z,11.02
2019-04-28T12:23:31.954Z,10.71
2019-04-28T12:24:31.511Z,10.61
2019-04-28T12:25:31.398Z,10.55
2019-04-28T12:26:31.518Z,10.66
2019-04-28T12:27:31.525Z,10.67
2019-04-28T12:28:31.446Z,10.67
2019-04-28T12:29:31.409Z,10.68
2019-04-28T12:30:31.378Z,10.73
2019-04-28T12:31:31.378Z,10.84
2019-04-28T12:32:31.333Z,10.82
2019-04-28T12:33:31.428Z,10.71
2019-04-28T12:34:31.332Z,10.74
2019-04-28T12:35:31.271Z,10.74
2019-04-28T12:36:31.284Z,10.74
2019-04-28T12:37:31.302Z,10.86
2019-04-28T12:38:31.579Z,10.76
2019-04-28T12:39:31.253Z,10.85
2019-04-28T12:40:31.273Z,10.82
2019-04-28T12:41:31.232Z,10.74
2019-04-28T12:42:31.264Z,10.81
2019-04-28T12:43:31.282Z,10.84
2019-04-28T12:44:31.210Z,10.86
2019-04-28T12:45:35.270Z,10.85
2019-04-28T12:46:32.957Z,10.71
2019-04-28T12:47:31.958Z,10.67
2019-04-28T12:48:32.711Z,10.42
2019-04-28T12:49:31.166Z,10.38
2019-04-28T12:50:31.187Z,10.36
2019-04-28T12:51:31.136Z,10.38
2019-04-28T12:52:31.081Z,10.47
2019-04-28T12:53:31.108Z,10.48
2019-04-28T12:54:31.143Z,10.40
2019-04-28T12:55:31.117Z,10.34
2019-04-28T12:56:31.038Z,10.32
2019-04-28T12:57:31.028Z,10.26
2019-04-28T12:58:31.132Z,10.15
2019-04-28T12:59:31.014Z,10.09
2019-04-28T13:00:31.004Z,10.07
2019-04-28T13:01:30.973Z,9.91
2019-04-28T13:02:31.956Z,9.83
2019-04-28T13:03:30.948Z,9.78
2019-04-28T13:04:30.964Z,9.66
2019-04-28T13:05:30.939Z,9.72
2019-04-28T13:06:30.958Z,9.64
2019-04-28T13:07:30.942Z,9.71
2019-04-28T13:08:30.944Z,9.65
2019-04-28T13:09:30.948Z,9.58
2019-04-28T13:10:30.907Z,9.66
2019-04-28T13:11:31.476Z,9.66
2019-04-28T13:12:30.910Z,9.69
2019-04-28T13:13:31.473Z,9.61
2019-04-28T13:14:30.839Z,9.68
2019-04-28T13:15:30.913Z,9.64
2019-04-28T13:16:30.821Z,9.66